Time;durP1;ratioP1;P1;durP2;ratioP2;P2;SDS_P1;SDS_P2;PMS_P1;PMS_P2;Temp;Humidity;BMP_temperature;BMP_pressure;BME280_temperature;BME280_humidity;BME280_pressure;Samples;Min_cycle;Max_cycle;Signal;HPM_P1;HPM_P2
2021/10/21 00:01:27;;;;;;;8.47;5.30;;;15.40;99.90;;;;;;5085156;28;20457;-53
2021/10/21 00:03:59;;;;;;;7.27;4.70;;;15.40;99.90;;;;;;5076197;28;20866;-51
2021/10/21 00:06:26;;;;;;;6.40;4.80;;;15.40;99.90;;;;;;5076077;28;20559;-54
2021/10/21 00:08:55;;;;;;;7.70;4.77;;;15.30;99.90;;;;;;5076633;28;20760;-50
2021/10/21 00:11:23;;;;;;;6.03;4.57;;;15.40;99.90;;;;;;5076334;28;20518;-56
2021/10/21 00:13:50;;;;;;;6.90;4.87;;;15.40;99.90;;;;;;5076088;28;20467;-52
2021/10/21 00:16:17;;;;;;;6.17;4.70;;;15.40;99.90;;;;;;5088627;28;20455;-47
2021/10/21 00:18:44;;;;;;;7.00;5.07;;;15.40;99.90;;;;;;5096342;28;20460;-50
2021/10/21 00:21:11;;;;;;;5.10;4.60;;;15.40;99.90;;;;;;5099179;28;20491;-52
2021/10/21 00:23:38;;;;;;;7.47;5.17;;;15.40;99.90;;;;;;5100246;28;20460;-58
2021/10/21 00:26:08;;;;;;;5.87;4.97;;;15.30;99.90;;;;;;5100027;28;20488;-56
2021/10/21 00:28:35;;;;;;;6.77;6.07;;;15.30;1.00;;;;;;5100328;28;20467;-57
2021/10/21 00:31:02;;;;;;;6.17;4.90;;;15.20;1.00;;;;;;5099737;28;20520;-55
2021/10/21 00:33:29;;;;;;;5.27;4.80;;;15.10;99.90;;;;;;5099913;28;20496;-51
2021/10/21 00:35:56;;;;;;;11.13;5.90;;;15.10;99.90;;;;;;5099603;28;20813;-53
2021/10/21 00:38:23;;;;;;;5.90;5.00;;;15.00;75.70;;;;;;5099708;28;20890;-53
2021/10/21 00:40:51;;;;;;;5.90;4.60;;;15.00;99.90;;;;;;5099671;28;20735;-59
2021/10/21 00:43:19;;;;;;;7.40;5.23;;;15.00;99.90;;;;;;5100281;28;20521;-60
2021/10/21 00:45:46;;;;;;;6.60;4.80;;;15.00;99.90;;;;;;5099571;28;20488;-61
2021/10/21 00:48:16;;;;;;;6.53;4.73;;;14.90;1.00;;;;;;5099259;28;20468;-61
2021/10/21 00:50:47;;;;;;;5.70;4.13;;;14.90;99.90;;;;;;5102489;28;20524;-61
2021/10/21 00:53:17;;;;;;;6.53;4.47;;;14.80;1.00;;;;;;5120255;28;20464;-61
2021/10/21 00:55:44;;;;;;;5.87;4.53;;;14.70;47.90;;;;;;5119704;28;20473;-62
2021/10/21 00:58:12;;;;;;;6.43;5.83;;;14.70;99.90;;;;;;5119448;28;20519;-62
2021/10/21 01:00:41;;;;;;;5.70;5.10;;;14.60;99.90;;;;;;5115195;28;20873;-62
2021/10/21 01:03:08;;;;;;;5.27;3.97;;;14.60;99.90;;;;;;5098760;28;20910;-61
2021/10/21 01:05:37;;;;;;;8.23;4.57;;;14.60;99.90;;;;;;5099314;28;20825;-63
2021/10/21 01:08:05;;;;;;;4.70;4.30;;;14.60;99.90;;;;;;5098995;28;20740;-63
2021/10/21 01:10:32;;;;;;;4.73;4.23;;;14.60;99.90;;;;;;5099052;28;20464;-62
2021/10/21 01:12:59;;;;;;;5.40;4.80;;;14.60;99.90;;;;;;5099439;28;20446;-63
2021/10/21 01:15:28;;;;;;;6.33;5.43;;;14.50;99.90;;;;;;5098898;28;20973;-63
2021/10/21 01:17:59;;;;;;;6.30;3.70;;;14.50;99.90;;;;;;5098455;28;20464;-63
2021/10/21 01:21:07;;;;;;;6.40;4.40;;;14.40;99.90;;;;;;5098724;28;20435;-63
2021/10/21 01:23:36;;;;;;;6.83;3.73;;;14.50;99.90;;;;;;5099087;28;20431;-64
2021/10/21 01:26:03;;;;;;;7.50;3.90;;;14.60;1.00;;;;;;5098665;28;20492;-64
2021/10/21 01:28:30;;;;;;;6.10;4.40;;;14.50;50.90;;;;;;5098859;28;20585;-64
2021/10/21 01:30:57;;;;;;;4.70;3.93;;;14.50;99.90;;;;;;5098721;28;20584;-65
2021/10/21 01:33:25;;;;;;;6.27;3.80;;;14.60;99.90;;;;;;5097972;28;20464;-64
2021/10/21 01:35:52;;;;;;;7.20;3.20;;;14.50;99.90;;;;;;5098253;28;20525;-64
2021/10/21 01:38:20;;;;;;;5.73;4.27;;;14.50;89.20;;;;;;5098392;28;20517;-63
2021/10/21 01:40:47;;;;;;;4.40;3.63;;;14.40;1.00;;;;;;5098733;28;20435;-64
2021/10/21 01:43:14;;;;;;;4.97;3.40;;;14.40;1.00;;;;;;5098467;28;20460;-63
2021/10/21 01:45:42;;;;;;;3.50;2.93;;;14.40;1.00;;;;;;5098612;28;20504;-66
2021/10/21 01:48:09;;;;;;;9.13;2.93;;;14.30;1.00;;;;;;5098109;28;20484;-64
2021/10/21 01:50:36;;;;;;;3.40;2.90;;;14.20;1.00;;;;;;5100627;28;20488;-63
2021/10/21 01:53:04;;;;;;;3.80;2.73;;;14.30;21.30;;;;;;5118525;28;20579;-63
2021/10/21 01:55:32;;;;;;;6.70;2.60;;;14.30;1.00;;;;;;5118439;28;20777;-64
2021/10/21 01:58:01;;;;;;;3.23;2.40;;;14.30;1.00;;;;;;5118201;28;20455;-62
2021/10/21 02:00:28;;;;;;;4.00;2.60;;;14.30;1.00;;;;;;5115488;28;20463;-62
2021/10/21 02:02:56;;;;;;;3.20;2.50;;;14.20;1.00;;;;;;5097999;28;20463;-62
2021/10/21 02:05:24;;;;;;;3.87;2.27;;;14.20;1.00;;;;;;5098129;28;20464;-64
2021/10/21 02:07:52;;;;;;;2.90;2.00;;;14.10;1.00;;;;;;5097784;28;21004;-63
2021/10/21 02:10:21;;;;;;;3.60;2.37;;;14.00;1.00;;;;;;5097248;28;20456;-61
2021/10/21 02:12:52;;;;;;;2.40;1.80;;;13.90;1.00;;;;;;5097802;28;20792;-62
2021/10/21 02:15:19;;;;;;;2.77;1.70;;;13.70;1.00;;;;;;5096731;28;20492;-63
2021/10/21 02:17:46;;;;;;;3.60;1.73;;;13.50;1.00;;;;;;5098164;28;20449;-62
2021/10/21 02:20:15;;;;;;;5.50;1.87;;;13.40;1.00;;;;;;5098004;28;20463;-61
2021/10/21 02:22:43;;;;;;;2.10;1.70;;;13.40;1.00;;;;;;5097900;28;20558;-62
2021/10/21 02:25:12;;;;;;;6.63;1.97;;;13.40;1.00;;;;;;5097815;28;20464;-61
2021/10/21 02:27:40;;;;;;;4.97;2.37;;;13.30;1.00;;;;;;5097663;28;20923;-61
2021/10/21 02:30:10;;;;;;;3.03;1.80;;;13.30;1.00;;;;;;5097524;28;20882;-62
2021/10/21 02:32:38;;;;;;;3.33;1.70;;;13.20;1.00;;;;;;5097610;28;20818;-62
2021/10/21 02:35:05;;;;;;;4.50;1.83;;;13.20;1.00;;;;;;5097494;28;20439;-63
2021/10/21 02:37:34;;;;;;;5.93;2.17;;;13.20;1.00;;;;;;5097529;28;20463;-62
2021/10/21 02:40:01;;;;;;;5.43;1.90;;;13.20;1.00;;;;;;5097453;28;20812;-61
2021/10/21 02:42:28;;;;;;;6.40;2.20;;;13.10;1.00;;;;;;5096961;28;20469;-61
2021/10/21 02:44:55;;;;;;;8.10;2.17;;;13.20;1.00;;;;;;5097464;28;20460;-62
2021/10/21 02:47:23;;;;;;;4.10;1.70;;;13.20;1.00;;;;;;5097368;28;20487;-61
2021/10/21 02:49:51;;;;;;;4.87;1.73;;;13.20;1.00;;;;;;5097109;28;20460;-60
2021/10/21 02:52:18;;;;;;;8.13;2.17;;;13.10;1.00;;;;;;5113520;28;20487;-61
2021/10/21 02:54:45;;;;;;;5.07;1.77;;;13.20;1.00;;;;;;5117459;28;20463;-60
2021/10/21 02:57:12;;;;;;;4.83;1.90;;;13.10;1.00;;;;;;5117679;28;20455;-60
2021/10/21 02:59:39;;;;;;;5.20;2.17;;;13.10;1.00;;;;;;5117139;28;20462;-59
2021/10/21 03:02:06;;;;;;;2.80;1.97;;;13.10;1.00;;;;;;5100322;28;20458;-59
2021/10/21 03:04:35;;;;;;;7.43;2.40;;;13.10;1.00;;;;;;5097049;28;20463;-61
2021/10/21 03:07:02;;;;;;;4.70;2.17;;;13.10;1.00;;;;;;5097112;28;20469;-61
2021/10/21 03:09:29;;;;;;;5.60;2.27;;;13.10;1.00;;;;;;5097134;28;20460;-57
2021/10/21 03:11:56;;;;;;;5.97;2.23;;;13.20;1.00;;;;;;5097194;28;20808;-61
2021/10/21 03:14:25;;;;;;;2.73;1.70;;;13.10;1.00;;;;;;5096938;28;20842;-61
2021/10/21 03:16:52;;;;;;;6.00;2.10;;;13.10;1.00;;;;;;5096750;28;20534;-61
2021/10/21 03:19:19;;;;;;;4.07;2.07;;;13.10;1.00;;;;;;5096929;28;20460;-60
2021/10/21 03:21:48;;;;;;;4.50;2.40;;;13.00;1.00;;;;;;5097219;28;20555;-59
2021/10/21 03:24:17;;;;;;;8.13;2.50;;;13.00;1.00;;;;;;5099885;28;20446;-59
2021/10/21 03:26:44;;;;;;;5.00;2.10;;;13.00;1.00;;;;;;5116645;28;20486;-59
2021/10/21 03:29:11;;;;;;;6.27;2.37;;;13.00;1.00;;;;;;5115863;28;20525;-57
2021/10/21 03:31:38;;;;;;;4.70;2.20;;;13.00;1.00;;;;;;5116730;28;20438;-60
2021/10/21 03:34:05;;;;;;;5.17;1.97;;;13.00;1.00;;;;;;5116156;28;20441;-61
2021/10/21 03:36:32;;;;;;;9.33;2.77;;;13.00;1.00;;;;;;5116556;28;20784;-57
2021/10/21 03:39:01;;;;;;;3.63;1.80;;;13.00;1.00;;;;;;5116311;28;20463;-59
2021/10/21 03:41:28;;;;;;;4.70;1.73;;;13.00;1.00;;;;;;5116521;28;20468;-60
2021/10/21 03:43:55;;;;;;;5.00;1.80;;;13.00;1.00;;;;;;5116325;28;20953;-55
2021/10/21 03:46:22;;;;;;;3.03;1.67;;;13.10;1.00;;;;;;5116367;28;20459;-58
2021/10/21 03:48:49;;;;;;;7.80;2.17;;;13.00;1.00;;;;;;5116558;28;20459;-59
2021/10/21 03:51:18;;;;;;;4.33;1.97;;;12.90;1.00;;;;;;5113353;28;20525;-58
2021/10/21 03:53:46;;;;;;;4.03;1.77;;;12.80;1.00;;;;;;5108787;28;20483;-58
2021/10/21 03:56:14;;;;;;;5.97;2.07;;;12.70;1.00;;;;;;5118540;28;20502;-56
2021/10/21 03:58:41;;;;;;;5.00;2.37;;;12.70;1.00;;;;;;5120218;28;20463;-58
2021/10/21 04:01:09;;;;;;;3.20;2.37;;;12.70;1.00;;;;;;5111398;28;20467;-55
2021/10/21 04:03:36;;;;;;;3.30;2.03;;;12.70;1.00;;;;;;5100818;28;20894;-58
2021/10/21 04:06:05;;;;;;;3.27;1.80;;;12.80;1.00;;;;;;5100475;28;20625;-58
2021/10/21 04:08:32;;;;;;;2.67;1.60;;;12.80;1.00;;;;;;5100187;28;20941;-60
2021/10/21 04:10:59;;;;;;;5.07;2.10;;;12.90;1.00;;;;;;5100579;28;20464;-56
2021/10/21 04:13:28;;;;;;;5.97;2.60;;;12.90;1.00;;;;;;5100589;28;20442;-58
2021/10/21 04:15:55;;;;;;;3.30;1.87;;;12.90;1.00;;;;;;5100063;28;20496;-58
2021/10/21 04:18:22;;;;;;;4.80;1.77;;;12.90;1.00;;;;;;5099955;28;20442;-59
2021/10/21 04:20:49;;;;;;;2.03;1.80;;;12.90;1.00;;;;;;5100326;28;20468;-59
2021/10/21 04:23:16;;;;;;;3.57;1.57;;;12.90;1.00;;;;;;5100141;28;20571;-60
2021/10/21 04:25:43;;;;;;;3.90;2.20;;;12.80;1.00;;;;;;5103859;28;20532;-60
2021/10/21 04:28:10;;;;;;;4.67;2.00;;;12.90;1.00;;;;;;5119528;28;20548;-59
2021/10/21 04:30:39;;;;;;;4.70;1.83;;;12.80;1.00;;;;;;5119279;28;20524;-59
2021/10/21 04:33:06;;;;;;;4.20;2.30;;;12.70;1.00;;;;;;5119895;28;20438;-60
2021/10/21 04:35:33;;;;;;;5.60;2.50;;;12.50;1.00;;;;;;5119547;28;20464;-58
2021/10/21 04:38:00;;;;;;;2.50;1.90;;;12.40;1.00;;;;;;5119245;28;20818;-55
2021/10/21 04:40:27;;;;;;;2.73;2.00;;;12.40;1.00;;;;;;5119224;28;20467;-55
2021/10/21 04:42:58;;;;;;;3.80;1.60;;;12.40;1.00;;;;;;5119325;28;20497;-57
2021/10/21 04:45:26;;;;;;;2.90;2.00;;;12.30;1.00;;;;;;5119754;28;20442;-54
2021/10/21 04:47:56;;;;;;;6.30;2.00;;;12.30;1.00;;;;;;5118927;28;20526;-59
2021/10/21 04:50:26;;;;;;;3.20;1.80;;;12.30;1.00;;;;;;5119064;28;20445;-55
2021/10/21 04:52:54;;;;;;;3.57;2.03;;;12.30;1.00;;;;;;5101223;28;20472;-56
2021/10/21 04:55:21;;;;;;;9.77;1.70;;;12.30;1.00;;;;;;5100164;28;20898;-59
2021/10/21 04:57:49;;;;;;;4.30;1.67;;;12.30;1.00;;;;;;5118803;28;20430;-58
2021/10/21 05:00:17;;;;;;;8.13;2.27;;;12.20;1.00;;;;;;5117652;28;20516;-57
2021/10/21 05:02:44;;;;;;;3.63;1.73;;;12.10;1.00;;;;;;5099403;28;20642;-59
2021/10/21 05:05:13;;;;;;;4.37;1.80;;;12.00;1.00;;;;;;5099374;28;20898;-57
2021/10/21 05:07:40;;;;;;;2.47;1.50;;;11.90;1.00;;;;;;5099071;28;20492;-60
2021/10/21 05:10:08;;;;;;;3.10;1.83;;;11.90;1.00;;;;;;5099215;28;20443;-62
2021/10/21 05:12:38;;;;;;;4.30;1.60;;;11.80;20.40;;;;;;5099331;28;20872;-62
2021/10/21 05:15:08;;;;;;;2.27;1.90;;;11.70;99.90;;;;;;5099334;28;20500;-62
2021/10/21 05:17:35;;;;;;;1.97;1.40;;;11.60;99.90;;;;;;5099650;28;20468;-62
2021/10/21 05:20:02;;;;;;;3.30;2.10;;;11.60;99.90;;;;;;5098672;28;20468;-61
2021/10/21 05:22:31;;;;;;;3.00;1.80;;;11.60;99.90;;;;;;5099070;28;20469;-60
2021/10/21 05:24:58;;;;;;;3.50;1.90;;;11.60;99.90;;;;;;5099438;28;20588;-60
2021/10/21 05:27:25;;;;;;;3.50;1.60;;;11.50;99.90;;;;;;5099738;28;20492;-62
2021/10/21 05:29:52;;;;;;;2.80;1.70;;;11.50;99.90;;;;;;5098580;28;20828;-62
2021/10/21 05:32:19;;;;;;;1.77;1.43;;;11.40;1.00;;;;;;5098711;28;20468;-63
2021/10/21 05:34:46;;;;;;;2.93;1.77;;;11.20;51.20;;;;;;5098654;28;20472;-63
2021/10/21 05:37:13;;;;;;;3.13;1.53;;;11.20;99.90;;;;;;5098983;28;20439;-63
2021/10/21 05:39:42;;;;;;;5.47;1.80;;;11.20;99.90;;;;;;5101180;28;20456;-63
2021/10/21 05:42:09;;;;;;;3.83;1.97;;;11.10;99.90;;;;;;5111317;28;20464;-63
2021/10/21 05:44:40;;;;;;;2.07;1.40;;;11.10;1.00;;;;;;5110240;28;20533;-62
2021/10/21 05:47:07;;;;;;;3.50;1.40;;;11.20;99.90;;;;;;5113894;28;20511;-63
2021/10/21 05:49:35;;;;;;;2.30;2.10;;;11.20;99.90;;;;;;5106358;28;20460;-62
2021/10/21 05:52:04;;;;;;;1.90;1.57;;;11.20;13.40;;;;;;5101900;28;20443;-63
2021/10/21 05:54:31;;;;;;;2.33;1.90;;;11.30;99.90;;;;;;5098313;28;20559;-64
2021/10/21 05:57:04;;;;;;;2.13;1.63;;;11.30;99.90;;;;;;5113110;28;20517;-63
2021/10/21 05:59:30;;;;;;;2.67;1.80;;;11.20;1.00;;;;;;5117511;28;20546;-62
2021/10/21 06:01:59;;;;;;;1.90;1.80;;;11.30;99.90;;;;;;5102495;28;20464;-62
2021/10/21 06:04:29;;;;;;;2.20;1.80;;;11.30;99.90;;;;;;5102372;28;20468;-63
2021/10/21 06:06:57;;;;;;;6.70;2.03;;;11.30;99.90;;;;;;5112788;28;20549;-63
2021/10/21 06:09:26;;;;;;;3.03;2.17;;;11.20;1.00;;;;;;5111082;28;20466;-65
2021/10/21 06:11:53;;;;;;;2.63;1.90;;;11.00;99.90;;;;;;5116065;27;20819;-68
2021/10/21 06:14:22;;;;;;;6.20;4.27;;;10.90;99.90;;;;;;5113679;27;20434;-66
2021/10/21 06:16:49;;;;;;;4.83;3.20;;;10.80;1.00;;;;;;5113552;28;20762;-65
2021/10/21 06:19:16;;;;;;;5.50;2.50;;;10.70;99.90;;;;;;5114083;27;20557;-65
2021/10/21 06:21:47;;;;;;;2.30;2.10;;;10.70;1.00;;;;;;5107040;28;20475;-66
2021/10/21 06:24:17;;;;;;;5.40;2.60;;;10.50;1.00;;;;;;5111870;28;20430;-69
2021/10/21 06:26:45;;;;;;;7.33;3.20;;;10.50;1.00;;;;;;5113527;28;20509;-69
2021/10/21 06:29:12;;;;;;;3.80;2.73;;;10.40;99.90;;;;;;5113226;28;20527;-70
2021/10/21 06:31:40;;;;;;;2.97;2.23;;;10.30;99.90;;;;;;5103532;28;20480;-72
2021/10/21 06:34:12;;;;;;;2.97;2.27;;;10.30;99.90;;;;;;5097687;28;20465;-71
2021/10/21 06:36:39;;;;;;;5.10;2.70;;;10.30;99.90;;;;;;5110629;28;20441;-73
2021/10/21 06:39:06;;;;;;;2.70;2.40;;;10.10;99.90;;;;;;5098927;28;20547;-68
2021/10/21 06:41:33;;;;;;;4.37;2.40;;;10.10;99.90;;;;;;5099644;28;20525;-68
2021/10/21 06:44:00;;;;;;;3.07;2.40;;;10.10;99.90;;;;;;5097632;28;20908;-71
2021/10/21 06:46:27;;;;;;;4.33;2.23;;;10.10;99.90;;;;;;5097158;28;20808;-67
2021/10/21 06:48:59;;;;;;;3.40;2.10;;;10.00;99.90;;;;;;5097833;28;20953;-70
2021/10/21 06:51:26;;;;;;;3.50;1.40;;;10.00;99.90;;;;;;5101710;28;20765;-68
2021/10/21 06:53:53;;;;;;;2.60;1.67;;;9.90;99.90;;;;;;5097611;28;20875;-69
2021/10/21 06:56:20;;;;;;;3.67;1.83;;;9.90;99.90;;;;;;5097789;28;20503;-69
2021/10/21 06:58:47;;;;;;;4.57;1.47;;;9.80;99.90;;;;;;5097073;28;20469;-70
2021/10/21 07:01:17;;;;;;;3.30;1.70;;;9.70;99.90;;;;;;5113634;28;20532;-66
2021/10/21 07:03:45;;;;;;;3.50;2.17;;;9.60;99.90;;;;;;5104214;28;20461;-70
2021/10/21 07:06:14;;;;;;;1.90;1.50;;;9.70;99.90;;;;;;5097384;28;20465;-66
2021/10/21 07:09:04;;;;;;;2.67;2.00;;;9.60;99.90;;;;;;5097570;28;20553;-68
2021/10/21 07:11:31;;;;;;;3.10;2.23;;;9.60;99.90;;;;;;5096786;28;20469;-69
2021/10/21 07:13:58;;;;;;;3.50;2.40;;;9.60;99.90;;;;;;5096576;28;20509;-66
2021/10/21 07:16:28;;;;;;;2.00;1.70;;;9.60;99.90;;;;;;5100994;28;20800;-67
2021/10/21 07:18:57;;;;;;;5.73;2.23;;;9.50;99.90;;;;;;5097314;28;20435;-69
2021/10/21 07:21:25;;;;;;;2.90;2.10;;;9.50;99.90;;;;;;5096909;28;20805;-67
2021/10/21 07:23:52;;;;;;;3.30;1.77;;;9.50;99.90;;;;;;5096518;28;20525;-66
2021/10/21 07:26:19;;;;;;;2.53;1.60;;;9.40;99.90;;;;;;5106109;28;20470;-66
2021/10/21 07:28:48;;;;;;;8.53;2.70;;;9.40;99.90;;;;;;5117513;28;20495;-67
2021/10/21 07:31:18;;;;;;;3.20;2.20;;;9.40;99.90;;;;;;5120693;28;20918;-65
2021/10/21 07:33:49;;;;;;;2.80;2.17;;;9.40;99.90;;;;;;5121273;28;20496;-66
2021/10/21 07:36:22;;;;;;;7.00;2.30;;;9.40;99.90;;;;;;5101069;28;20442;-66
2021/10/21 07:38:51;;;;;;;2.50;2.10;;;9.40;99.90;;;;;;5101420;28;20460;-66
2021/10/21 07:41:19;;;;;;;4.20;2.87;;;9.50;99.90;;;;;;5101753;28;20491;-67
2021/10/21 07:43:46;;;;;;;5.23;2.13;;;9.50;99.90;;;;;;5101204;28;20527;-66
2021/10/21 07:46:13;;;;;;;3.30;1.83;;;9.50;99.90;;;;;;5100816;28;20755;-68
2021/10/21 07:48:42;;;;;;;7.17;2.40;;;9.50;99.90;;;;;;5101092;28;20517;-67
2021/10/21 07:51:09;;;;;;;4.77;2.07;;;9.60;99.90;;;;;;5105917;28;20463;-64
2021/10/21 07:53:36;;;;;;;5.57;2.43;;;9.60;99.90;;;;;;5100405;28;20435;-64
2021/10/21 07:56:05;;;;;;;7.53;2.60;;;9.60;99.90;;;;;;5106577;28;20450;-63
2021/10/21 07:58:32;;;;;;;7.27;2.70;;;9.70;99.90;;;;;;5120715;28;20508;-64
2021/10/21 08:01:01;;;;;;;5.37;2.67;;;9.70;99.90;;;;;;5110818;28;20464;-64
2021/10/21 08:03:28;;;;;;;8.00;2.87;;;9.70;99.90;;;;;;5100458;28;20499;-65
2021/10/21 08:05:56;;;;;;;12.13;3.23;;;9.70;99.90;;;;;;5111698;28;20434;-65
2021/10/21 08:08:27;;;;;;;7.50;2.43;;;9.70;99.90;;;;;;5120034;28;20495;-64
2021/10/21 08:10:56;;;;;;;3.23;2.10;;;9.70;99.90;;;;;;5120195;28;20463;-63
2021/10/21 08:13:26;;;;;;;8.83;2.80;;;9.60;1.00;;;;;;5119904;28;20463;-63
2021/10/21 08:15:53;;;;;;;4.43;2.40;;;9.60;99.90;;;;;;5119722;28;20561;-63
2021/10/21 08:18:20;;;;;;;7.33;3.10;;;9.60;90.00;;;;;;5120140;28;20889;-62
2021/10/21 08:20:51;;;;;;;5.17;3.77;;;9.60;1.00;;;;;;5118632;28;20459;-62
2021/10/21 08:23:19;;;;;;;9.43;3.03;;;9.60;99.90;;;;;;5101351;28;20523;-63
2021/10/21 08:25:48;;;;;;;7.77;2.57;;;9.60;99.90;;;;;;5120039;28;20438;-63
2021/10/21 08:28:15;;;;;;;8.60;3.30;;;9.80;1.00;;;;;;5119851;28;20948;-64
2021/10/21 08:30:45;;;;;;;9.07;3.20;;;9.80;99.90;;;;;;5119893;28;20515;-62
2021/10/21 08:33:14;;;;;;;6.87;3.47;;;9.90;99.90;;;;;;5119972;28;20467;-62
2021/10/21 08:35:42;;;;;;;7.53;2.90;;;9.90;18.20;;;;;;5119994;28;20467;-62
2021/10/21 08:38:09;;;;;;;11.03;4.10;;;9.80;1.00;;;;;;5119458;28;20459;-63
2021/10/21 08:40:39;;;;;;;5.10;3.00;;;9.80;1.00;;;;;;5118954;28;20741;-62
2021/10/21 08:43:08;;;;;;;9.37;3.00;;;9.80;1.00;;;;;;5119711;28;20812;-62
2021/10/21 08:45:36;;;;;;;12.40;3.10;;;9.80;1.00;;;;;;5119787;28;20463;-63
2021/10/21 08:48:08;;;;;;;9.73;3.00;;;9.80;1.00;;;;;;5119125;28;20434;-62
2021/10/21 08:50:39;;;;;;;6.07;2.67;;;9.80;1.00;;;;;;5120033;28;20464;-62
2021/10/21 08:53:07;;;;;;;7.17;3.40;;;9.80;17.30;;;;;;5102626;28;20860;-62
2021/10/21 08:55:34;;;;;;;8.50;3.40;;;10.00;1.00;;;;;;5110816;28;20536;-62
2021/10/21 08:58:02;;;;;;;9.53;4.07;;;10.00;1.00;;;;;;5119207;28;20459;-64
2021/10/21 09:00:33;;;;;;;9.10;3.70;;;10.20;1.00;;;;;;5102710;28;20479;-65
2021/10/21 09:03:02;;;;;;;12.93;4.53;;;10.40;99.90;;;;;;5099448;28;20514;-64
2021/10/21 09:05:37;;;;;;;7.83;3.73;;;10.70;99.90;;;;;;5113263;28;20463;-64
2021/10/21 09:08:08;;;;;;;13.37;3.30;;;11.20;99.90;;;;;;5113415;28;20451;-64
2021/10/21 09:10:47;;;;;;;7.57;3.97;;;11.40;13.80;;;;;;5113505;28;20433;-64
2021/10/21 09:13:25;;;;;;;8.43;3.57;;;11.40;1.00;;;;;;5110878;28;20541;-64
2021/10/21 09:15:58;;;;;;;14.20;4.03;;;11.40;1.00;;;;;;5110477;28;20483;-64
2021/10/21 09:18:28;;;;;;;8.63;3.90;;;11.40;1.00;;;;;;5116375;28;20434;-63
2021/10/21 09:21:02;;;;;;;9.27;3.37;;;11.30;1.00;;;;;;5114051;28;20927;-63
2021/10/21 09:23:32;;;;;;;9.47;3.77;;;11.30;1.00;;;;;;5114439;28;20451;-63
2021/10/21 09:26:10;;;;;;;9.47;4.17;;;11.20;1.00;;;;;;5111717;28;20479;-62
2021/10/21 09:28:38;;;;;;;12.60;4.20;;;11.20;1.00;;;;;;5113985;28;20465;-63
2021/10/21 09:31:08;;;;;;;11.90;4.47;;;11.10;1.00;;;;;;5113454;28;20465;-67
2021/10/21 09:33:49;;;;;;;6.60;3.63;;;10.90;1.00;;;;;;5113669;28;20875;-66
2021/10/21 09:36:26;;;;;;;6.50;3.60;;;10.70;99.90;;;;;;5114177;28;20528;-68
2021/10/21 09:38:55;;;;;;;9.53;4.03;;;10.50;99.90;;;;;;5113391;28;20499;-67
2021/10/21 09:41:25;;;;;;;5.53;4.30;;;10.40;99.90;;;;;;5115793;28;21079;-68
2021/10/21 09:43:53;;;;;;;9.50;4.27;;;10.30;99.90;;;;;;5113015;28;20455;-67
2021/10/21 09:46:33;;;;;;;7.00;4.27;;;10.20;99.90;;;;;;5105361;28;20435;-66
2021/10/21 09:49:21;;;;;;;12.37;4.57;;;10.30;99.90;;;;;;5112803;28;20495;-65
2021/10/21 09:51:52;;;;;;;6.70;3.70;;;10.30;99.90;;;;;;5116736;28;20462;-65
2021/10/21 09:54:22;;;;;;;11.17;4.30;;;10.30;42.70;;;;;;5104009;28;20492;-65
2021/10/21 09:57:04;;;;;;;7.17;3.50;;;10.40;31.00;;;;;;5104869;28;20495;-66
2021/10/21 09:59:36;;;;;;;8.10;3.63;;;10.40;1.00;;;;;;5116958;28;20767;-66
2021/10/21 10:02:11;;;;;;;5.83;3.03;;;10.40;1.00;;;;;;5097996;28;20448;-66
2021/10/21 10:04:42;;;;;;;7.43;3.60;;;10.30;1.00;;;;;;5098826;28;20927;-65
2021/10/21 10:07:12;;;;;;;10.73;3.87;;;10.30;1.00;;;;;;5098590;28;20464;-66
2021/10/21 10:09:58;;;;;;;6.20;3.20;;;10.30;1.00;;;;;;5098644;28;20756;-66
2021/10/21 10:12:26;;;;;;;7.43;3.80;;;10.40;1.00;;;;;;5117942;28;20771;-67
2021/10/21 10:14:53;;;;;;;21.30;4.20;;;10.40;1.00;;;;;;5097927;28;20478;-66
2021/10/21 10:17:21;;;;;;;10.20;3.70;;;10.60;1.00;;;;;;5117980;28;20442;-64
2021/10/21 10:19:50;;;;;;;7.47;3.30;;;10.50;1.00;;;;;;5117541;28;20455;-65
2021/10/21 10:22:25;;;;;;;7.77;3.27;;;10.50;1.00;;;;;;5117634;28;20881;-64
2021/10/21 10:24:55;;;;;;;8.00;3.00;;;10.50;1.00;;;;;;5097681;28;20441;-65
2021/10/21 10:27:27;;;;;;;7.10;2.90;;;10.50;1.00;;;;;;5113328;28;20911;-65
2021/10/21 10:29:54;;;;;;;7.43;2.80;;;10.50;1.00;;;;;;5117420;28;20495;-65
2021/10/21 10:32:42;;;;;;;5.07;2.73;;;10.50;1.00;;;;;;5117569;28;20468;-66
2021/10/21 10:35:15;;;;;;;8.00;3.20;;;10.40;1.00;;;;;;5117613;28;20462;-64
2021/10/21 10:37:55;;;;;;;5.30;2.80;;;10.40;1.00;;;;;;5117684;28;20887;-65
2021/10/21 10:40:46;;;;;;;6.50;2.73;;;10.40;1.00;;;;;;5117483;28;20717;-64
2021/10/21 10:43:15;;;;;;;5.10;2.80;;;10.40;1.00;;;;;;5117358;28;20442;-63
2021/10/21 10:45:46;;;;;;;4.50;2.40;;;10.50;1.00;;;;;;5117746;28;20893;-64
2021/10/21 10:48:14;;;;;;;8.80;2.70;;;10.50;1.00;;;;;;5117184;28;20890;-64
2021/10/21 10:50:55;;;;;;;4.30;2.60;;;10.50;1.00;;;;;;5117295;28;20920;-63
2021/10/21 10:53:47;;;;;;;7.90;2.40;;;10.50;1.00;;;;;;5097470;28;20533;-64
2021/10/21 10:56:50;;;;;;;11.87;3.63;;;10.40;1.00;;;;;;5103404;28;20872;-64
2021/10/21 10:59:31;;;;;;;6.87;3.17;;;10.40;1.00;;;;;;5117224;28;20723;-65
2021/10/21 11:02:24;;;;;;;7.53;3.40;;;10.50;1.00;;;;;;5108350;28;20760;-67
2021/10/21 11:05:13;;;;;;;6.20;2.90;;;10.40;1.00;;;;;;5114406;28;20773;-67
2021/10/21 11:07:53;;;;;;;10.10;2.80;;;10.40;1.00;;;;;;5094562;28;20491;-66
2021/10/21 11:10:38;;;;;;;9.77;3.00;;;10.20;1.00;;;;;;5097323;28;20499;-67
2021/10/21 11:13:37;;;;;;;8.40;3.10;;;10.10;1.00;;;;;;5101846;28;20806;-67
2021/10/21 11:16:07;;;;;;;18.70;3.50;;;10.10;1.00;;;;;;5102117;28;20494;-67
2021/10/21 11:18:50;;;;;;;10.90;4.10;;;10.10;57.90;;;;;;5100445;28;20460;-67
2021/10/21 11:21:52;;;;;;;7.47;3.63;;;10.20;99.90;;;;;;5102049;28;20470;-65
2021/10/21 11:24:53;;;;;;;11.70;3.43;;;10.20;99.90;;;;;;5094886;28;20823;-65
2021/10/21 11:27:26;;;;;;;10.67;3.30;;;10.30;99.90;;;;;;5093125;28;20566;-65
2021/10/21 11:29:59;;;;;;;7.70;3.40;;;10.40;99.90;;;;;;5108717;28;20474;-65
2021/10/21 11:32:34;;;;;;;7.67;3.67;;;10.40;99.90;;;;;;5101349;28;20502;-65
2021/10/21 11:35:06;;;;;;;10.30;3.50;;;10.60;99.90;;;;;;5110065;28;20468;-66
2021/10/21 11:37:43;;;;;;;8.80;3.93;;;10.80;99.90;;;;;;5100971;28;20468;-66
2021/10/21 11:40:17;;;;;;;7.87;3.00;;;11.00;99.90;;;;;;5098974;28;20460;-64
2021/10/21 11:42:57;;;;;;;9.40;3.30;;;11.10;39.90;;;;;;5097463;28;20438;-63
2021/10/21 11:45:28;;;;;;;11.80;3.83;;;11.20;27.00;;;;;;5097573;28;20463;-63
2021/10/21 11:47:59;;;;;;;8.10;3.60;;;11.10;1.00;;;;;;5098245;28;20460;-63
2021/10/21 11:50:39;;;;;;;10.93;4.70;;;10.90;1.00;;;;;;5097161;28;20568;-63
2021/10/21 11:53:11;;;;;;;6.27;2.87;;;10.90;42.50;;;;;;5097114;28;20460;-62
2021/10/21 11:55:38;;;;;;;9.03;3.77;;;10.70;3.90;;;;;;5099532;28;20467;-62
2021/10/21 11:58:16;;;;;;;8.73;3.97;;;10.60;99.90;;;;;;5107479;28;20469;-62
2021/10/21 12:00:45;;;;;;;12.87;5.43;;;10.60;99.90;;;;;;5100239;28;20466;-62
2021/10/21 12:03:13;;;;;;;9.00;4.50;;;10.60;99.90;;;;;;5100632;28;20512;-62
2021/10/21 12:05:43;;;;;;;9.30;3.43;;;10.60;99.90;;;;;;5096818;28;20535;-63
2021/10/21 12:08:12;;;;;;;13.03;3.90;;;10.60;99.90;;;;;;5096904;28;20528;-63
2021/10/21 12:10:43;;;;;;;10.50;3.33;;;10.60;99.90;;;;;;5096766;28;20743;-62
2021/10/21 12:13:28;;;;;;;4.80;2.90;;;10.60;1.00;;;;;;5097035;28;20908;-63
2021/10/21 12:16:00;;;;;;;7.37;3.73;;;10.60;99.90;;;;;;5097520;28;20467;-63
2021/10/21 12:18:34;;;;;;;4.10;2.80;;;10.60;99.90;;;;;;5100046;28;20467;-63
2021/10/21 12:21:03;;;;;;;5.23;3.00;;;10.50;99.90;;;;;;5100327;28;20752;-63
2021/10/21 12:23:32;;;;;;;4.60;3.03;;;10.60;99.90;;;;;;5100455;28;20468;-63
2021/10/21 12:26:00;;;;;;;4.33;3.00;;;10.70;99.90;;;;;;5105713;28;20464;-62
2021/10/21 12:28:40;;;;;;;3.40;2.60;;;10.70;99.90;;;;;;5119808;28;20499;-63
2021/10/21 12:31:22;;;;;;;4.63;2.53;;;10.80;99.90;;;;;;5120205;28;20497;-63
2021/10/21 12:33:58;;;;;;;4.97;2.10;;;10.80;99.90;;;;;;5119486;28;20524;-62
2021/10/21 12:36:27;;;;;;;4.67;2.20;;;10.80;99.90;;;;;;5113455;28;20529;-63
2021/10/21 12:38:56;;;;;;;4.07;2.40;;;10.90;43.70;;;;;;5100088;28;20452;-63
2021/10/21 12:41:27;;;;;;;5.23;2.60;;;11.10;23.50;;;;;;5113489;28;20466;-63
2021/10/21 12:44:05;;;;;;;5.47;2.33;;;11.10;1.00;;;;;;5099894;28;20467;-63
2021/10/21 12:46:36;;;;;;;5.30;2.17;;;11.20;1.00;;;;;;5100060;28;20438;-62
2021/10/21 12:49:10;;;;;;;8.90;2.10;;;11.10;1.00;;;;;;5099505;28;20467;-62
2021/10/21 12:51:38;;;;;;;3.87;2.03;;;10.80;1.00;;;;;;5111732;28;20467;-63
2021/10/21 12:54:07;;;;;;;6.67;2.47;;;10.60;31.30;;;;;;5102072;28;20507;-64
2021/10/21 12:56:35;;;;;;;3.17;2.47;;;10.30;99.90;;;;;;5109625;28;20442;-64
2021/10/21 12:59:06;;;;;;;2.83;1.87;;;10.10;99.90;;;;;;5119649;28;20953;-64
2021/10/21 13:01:54;;;;;;;3.20;1.90;;;9.70;99.90;;;;;;5107762;28;20903;-64
2021/10/21 13:04:41;;;;;;;4.30;1.83;;;9.50;99.90;;;;;;5113051;28;20471;-65
2021/10/21 13:07:10;;;;;;;4.10;1.97;;;9.30;99.90;;;;;;5119371;28;20443;-64
2021/10/21 13:09:40;;;;;;;4.17;2.00;;;9.20;99.90;;;;;;5116964;28;20503;-63